Time;durP1;ratioP1;P1;durP2;ratioP2;P2;SDS_P1;SDS_P2;PMS_P1;PMS_P2;Temp;Humidity;BMP_temperature;BMP_pressure;BME280_temperature;BME280_humidity;BME280_pressure;Samples;Min_cycle;Max_cycle;Signal;HPM_P1;HPM_P2
2023/09/23 00:01:05;;;;;;;13.60;8.70;;;;;;;19.15;60.54;100702.52;108154;1254;72576;-69
2023/09/23 00:03:33;;;;;;;11.70;8.60;;;;;;;19.11;60.47;100700.14;107992;1254;71318;-69
2023/09/23 00:06:03;;;;;;;12.20;9.00;;;;;;;19.07;60.62;100696.73;108006;1257;71377;-68
2023/09/23 00:08:31;;;;;;;13.50;8.90;;;;;;;19.00;60.93;100699.56;108138;1257;60710;-66
2023/09/23 00:10:59;;;;;;;11.40;8.70;;;;;;;18.95;61.11;100695.77;108033;1254;60371;-67
2023/09/23 00:13:28;;;;;;;11.80;8.80;;;;;;;18.91;61.24;100693.27;107971;1255;72789;-67
2023/09/23 00:15:56;;;;;;;12.80;9.10;;;;;;;18.89;61.21;100692.36;107960;1257;72844;-68
2023/09/23 00:18:23;;;;;;;14.00;9.20;;;;;;;18.87;61.35;100695.86;107918;1255;71458;-68
2023/09/23 00:20:54;;;;;;;12.00;9.30;;;;;;;18.87;61.45;100695.89;108070;1253;60398;-68
2023/09/23 00:23:23;;;;;;;13.50;9.90;;;;;;;18.84;61.50;100695.20;108028;1254;60434;-68
2023/09/23 00:25:51;;;;;;;12.80;9.50;;;;;;;18.80;61.73;100699.09;107918;1259;73956;-68
2023/09/23 00:28:20;;;;;;;10.10;8.50;;;;;;;18.77;61.88;100701.65;107900;1254;71534;-68
2023/09/23 00:30:48;;;;;;;11.90;8.50;;;;;;;18.75;61.93;100701.58;107934;1254;73896;-68
2023/09/23 00:33:17;;;;;;;12.40;8.50;;;;;;;18.76;61.86;100702.27;107958;1254;60602;-68
2023/09/23 00:35:47;;;;;;;14.40;8.90;;;;;;;18.77;61.82;100700.86;107974;1258;62273;-68
2023/09/23 00:38:17;;;;;;;14.70;9.50;;;;;;;18.77;62.07;100701.40;108097;1254;72573;-68
2023/09/23 00:40:45;;;;;;;15.00;9.70;;;;;;;18.77;62.02;100700.64;107922;1259;72971;-68
2023/09/23 00:43:17;;;;;;;16.80;9.00;;;;;;;18.78;61.81;100700.84;108132;1259;72692;-68
2023/09/23 00:45:48;;;;;;;12.90;9.50;;;;;;;18.78;61.90;100700.77;108049;1259;60431;-68
2023/09/23 00:48:20;;;;;;;;;;;;;;;18.79;61.81;100699.27;108218;1255;60273;-68
2023/09/23 00:50:53;;;;;;;14.80;8.70;;;;;;;18.78;61.83;100697.04;107997;1259;72570;-68
2023/09/23 00:53:21;;;;;;;11.10;8.80;;;;;;;18.76;61.84;100695.79;108257;1254;70768;-68
2023/09/23 00:55:52;;;;;;;11.40;8.60;;;;;;;18.75;61.75;100693.14;108076;1254;72733;-68
2023/09/23 00:58:23;;;;;;;11.90;8.60;;;;;;;18.77;61.67;100693.29;108064;1254;60420;-68
2023/09/23 01:00:51;;;;;;;11.80;9.20;;;;;;;18.78;61.54;100695.41;108039;1254;60286;-67
2023/09/23 01:03:19;;;;;;;13.10;9.70;;;;;;;18.79;61.41;100698.14;108248;1254;73859;-68
2023/09/23 01:05:49;;;;;;;12.10;9.10;;;;;;;18.78;61.33;100697.72;108264;1259;72714;-67
2023/09/23 01:08:20;;;;;;;10.40;8.70;;;;;;;18.76;61.33;100696.05;108070;1254;72673;-67
2023/09/23 01:10:48;;;;;;;12.40;8.80;;;;;;;18.75;61.20;100696.28;108031;1257;61720;-68
2023/09/23 01:13:20;;;;;;;12.60;9.00;;;;;;;18.75;61.10;100697.36;108167;1256;59462;-68
2023/09/23 01:15:48;;;;;;;11.70;8.50;;;;;;;18.75;61.22;100699.85;108082;1254;74138;-68
2023/09/23 01:18:17;;;;;;;10.60;8.30;;;;;;;18.75;61.19;100702.34;107972;1254;72971;-68
2023/09/23 01:20:49;;;;;;;14.30;8.50;;;;;;;18.75;61.06;100704.56;108098;1255;71415;-68
2023/09/23 01:23:17;;;;;;;14.60;9.20;;;;;;;18.75;61.20;100705.75;107872;1254;60420;-68
2023/09/23 01:25:45;;;;;;;16.10;8.80;;;;;;;18.77;61.17;100708.63;108104;1254;60013;-68
2023/09/23 01:28:13;;;;;;;13.60;9.10;;;;;;;18.79;61.13;100709.08;108042;1254;72629;-68
2023/09/23 01:30:43;;;;;;;13.70;8.50;;;;;;;18.75;61.24;100712.23;107931;1259;72642;-67
2023/09/23 01:33:14;;;;;;;11.50;8.50;;;;;;;18.70;61.33;100716.34;108054;1259;71597;-69
2023/09/23 01:35:42;;;;;;;11.10;8.40;;;;;;;18.63;61.63;100717.11;107935;1256;60610;-68
2023/09/23 01:38:10;;;;;;;11.70;8.30;;;;;;;18.57;61.70;100717.84;107983;1255;60322;-68
2023/09/23 01:40:39;;;;;;;11.10;8.30;;;;;;;18.55;61.67;100720.55;107992;1254;72695;-67
2023/09/23 01:43:08;;;;;;;10.50;8.60;;;;;;;18.54;61.93;100725.77;108023;1254;72291;-67
2023/09/23 01:45:36;;;;;;;13.60;8.90;;;;;;;18.54;61.90;100725.23;108004;1256;72745;-68
2023/09/23 01:48:03;;;;;;;12.40;8.60;;;;;;;18.55;61.81;100726.66;107982;1255;60695;-68
2023/09/23 01:50:31;;;;;;;9.50;8.50;;;;;;;18.56;61.86;100727.88;107998;1254;60475;-68
2023/09/23 01:53:00;;;;;;;11.90;9.00;;;;;;;18.55;61.89;100729.30;107968;1254;73833;-68
2023/09/23 01:55:28;;;;;;;15.10;8.90;;;;;;;18.53;61.71;100737.95;107960;1254;72890;-68
2023/09/23 01:57:56;;;;;;;11.90;8.90;;;;;;;18.50;61.70;100733.48;108062;1254;72502;-67
2023/09/23 02:00:26;;;;;;;14.40;8.50;;;;;;;18.46;61.64;100731.50;107868;1254;61713;-67
2023/09/23 02:02:55;;;;;;;13.50;8.70;;;;;;;18.43;61.64;100738.44;108080;1255;60281;-68
2023/09/23 02:05:27;;;;;;;12.60;8.70;;;;;;;18.39;61.56;100740.60;107906;1254;73870;-68
2023/09/23 02:07:55;;;;;;;11.40;8.80;;;;;;;18.34;61.53;100744.12;108129;1254;72911;-68
2023/09/23 02:10:26;;;;;;;12.90;9.50;;;;;;;18.28;61.61;100743.16;107844;1254;71474;-68
2023/09/23 02:12:55;;;;;;;10.80;9.20;;;;;;;18.21;61.68;100745.69;108067;1255;60326;-68
2023/09/23 02:15:23;;;;;;;12.90;9.60;;;;;;;18.14;61.88;100740.23;108130;1254;60088;-68
2023/09/23 02:17:51;;;;;;;13.70;9.90;;;;;;;18.06;62.17;100741.05;107939;1254;72837;-68
2023/09/23 02:20:19;;;;;;;12.50;9.30;;;;;;;17.97;62.37;100738.19;107815;1254;71628;-67
2023/09/23 02:22:50;;;;;;;13.80;9.20;;;;;;;17.90;62.70;100733.64;107896;1254;73039;-67
2023/09/23 02:25:18;;;;;;;12.80;9.30;;;;;;;17.83;63.01;100738.54;107904;1258;59976;-67
2023/09/23 02:27:46;;;;;;;11.40;9.10;;;;;;;17.75;63.48;100739.10;107830;1254;60512;-68
2023/09/23 02:30:14;;;;;;;14.30;9.80;;;;;;;17.66;63.59;100737.21;107947;1260;73931;-67
2023/09/23 02:32:45;;;;;;;11.00;9.70;;;;;;;17.61;63.80;100740.45;108056;1254;72623;-67
2023/09/23 02:35:15;;;;;;;11.30;9.60;;;;;;;17.56;64.03;100743.66;108071;1260;72685;-68
2023/09/23 02:37:44;;;;;;;12.70;9.70;;;;;;;17.51;64.22;100741.86;108039;1260;60468;-68
2023/09/23 02:40:13;;;;;;;13.00;9.50;;;;;;;17.48;64.39;100743.21;108058;1254;60420;-70
2023/09/23 02:42:43;;;;;;;13.30;9.70;;;;;;;17.44;64.42;100740.49;108014;1254;72670;-69
2023/09/23 02:45:13;;;;;;;17.60;10.10;;;;;;;17.41;64.48;100740.98;107922;1260;73854;-67
2023/09/23 02:47:44;;;;;;;13.10;10.60;;;;;;;17.36;64.46;100749.81;108075;1254;72695;-67
2023/09/23 02:50:17;;;;;;;13.70;10.40;;;;;;;17.29;64.58;100753.38;107824;1259;60430;-67
2023/09/23 02:52:48;;;;;;;15.50;10.30;;;;;;;17.24;64.58;100756.61;107961;1254;60313;-67
2023/09/23 02:55:19;;;;;;;;;;;;;;;17.19;64.60;100758.38;108070;1259;73884;-67
2023/09/23 02:57:50;;;;;;;14.20;10.40;;;;;;;17.13;64.73;100761.99;107907;1254;72723;-67
2023/09/23 03:00:29;;;;;;;16.20;11.30;;;;;;;17.06;64.80;100766.15;108045;1257;72539;-68
2023/09/23 03:02:58;;;;;;;14.00;10.30;;;;;;;17.02;64.84;100770.11;107963;1260;61748;-68
2023/09/23 03:05:30;;;;;;;15.40;10.10;;;;;;;16.97;64.94;100770.23;108081;1260;60527;-68
2023/09/23 03:07:59;;;;;;;13.80;10.40;;;;;;;16.94;65.03;100773.20;108132;1254;72894;-68
2023/09/23 03:10:32;;;;;;;13.50;9.80;;;;;;;16.92;65.06;100778.08;107974;1255;71860;-68
2023/09/23 03:13:07;;;;;;;13.20;9.80;;;;;;;16.88;65.12;100778.80;108006;1254;73187;-69
2023/09/23 03:16:28;;;;;;;14.70;10.20;;;;;;;16.86;65.16;100786.98;107808;1255;60447;-69
2023/09/23 03:18:33;;;;;;;15.40;10.20;;;;;;;16.85;65.33;100778.20;108062;1254;60039;-67
2023/09/23 03:21:08;;;;;;;12.60;10.50;;;;;;;16.92;65.15;100774.91;107962;1260;73928;-67
2023/09/23 03:23:39;;;;;;;13.60;10.60;;;;;;;16.83;65.25;100773.04;107837;1254;71440;-67
2023/09/23 03:26:08;;;;;;;13.10;10.30;;;;;;;16.84;65.18;100768.11;107798;1257;72796;-68
2023/09/23 03:28:38;;;;;;;13.50;10.40;;;;;;;16.79;65.39;100766.04;107886;1260;61694;-68
2023/09/23 03:31:09;;;;;;;14.10;10.20;;;;;;;16.75;65.61;100771.80;107825;1255;60305;-68
2023/09/23 03:33:44;;;;;;;16.10;10.10;;;;;;;16.69;65.69;100769.06;107858;1254;72960;-68
2023/09/23 03:36:14;;;;;;;18.20;10.30;;;;;;;16.63;65.94;100766.14;108068;1260;73986;-68
2023/09/23 03:38:42;;;;;;;14.10;9.40;;;;;;;16.58;66.13;100770.95;107842;1254;72634;-67
2023/09/23 03:41:11;;;;;;;17.10;10.40;;;;;;;16.57;66.25;100769.68;108036;1258;60563;-70
2023/09/23 03:43:40;;;;;;;15.40;10.10;;;;;;;16.55;66.36;100774.44;107950;1254;60276;-68
2023/09/23 03:46:16;;;;;;;13.90;10.60;;;;;;;16.54;66.40;100771.77;108009;1254;72209;-68
2023/09/23 03:48:44;;;;;;;13.10;9.90;;;;;;;16.53;66.54;100774.64;107928;1254;72827;-68
2023/09/23 03:51:14;;;;;;;12.80;10.30;;;;;;;16.53;66.62;100775.45;108036;1257;73199;-69
2023/09/23 03:53:44;;;;;;;13.80;10.60;;;;;;;16.51;66.66;100775.59;107836;1260;60733;-68
2023/09/23 03:56:12;;;;;;;15.30;10.20;;;;;;;16.46;66.85;100779.05;107917;1260;60335;-69
2023/09/23 03:58:40;;;;;;;18.20;11.00;;;;;;;16.43;66.99;100783.57;107984;1260;73262;-67
2023/09/23 04:01:13;;;;;;;12.60;10.00;;;;;;;16.42;67.06;100785.95;108055;1254;72792;-69
2023/09/23 04:03:41;;;;;;;13.50;9.90;;;;;;;16.40;67.22;100786.52;107785;1257;71241;-67
2023/09/23 04:06:09;;;;;;;13.70;10.00;;;;;;;16.38;67.32;100786.20;107990;1254;61855;-69
2023/09/23 04:08:37;;;;;;;14.50;10.70;;;;;;;16.33;67.41;100791.67;107862;1258;60518;-67
2023/09/23 04:11:05;;;;;;;14.00;10.00;;;;;;;16.22;67.76;100792.95;107829;1254;73894;-68
2023/09/23 04:13:33;;;;;;;13.80;9.60;;;;;;;16.06;68.20;100793.67;107961;1254;73089;-68
2023/09/23 04:16:00;;;;;;;14.00;11.00;;;;;;;15.98;68.60;100799.16;107950;1254;72685;-69
2023/09/23 04:18:29;;;;;;;15.30;10.70;;;;;;;15.95;69.02;100800.58;107956;1254;60709;-69
2023/09/23 04:20:57;;;;;;;14.80;10.90;;;;;;;15.96;69.42;100800.25;108080;1254;62215;-68
2023/09/23 04:23:25;;;;;;;18.90;10.60;;;;;;;16.00;69.66;100807.02;107987;1260;73137;-68
2023/09/23 04:25:53;;;;;;;12.40;10.30;;;;;;;16.03;70.00;100807.17;107914;1260;71589;-68
2023/09/23 04:28:20;;;;;;;13.80;9.90;;;;;;;16.12;70.21;100809.40;107868;1257;72997;-68
2023/09/23 04:30:53;;;;;;;13.50;10.30;;;;;;;16.16;70.22;100807.20;107881;1257;61787;-67
2023/09/23 04:33:21;;;;;;;13.20;10.40;;;;;;;16.17;70.47;100806.65;108187;1254;59069;-68
2023/09/23 04:35:49;;;;;;;12.10;10.40;;;;;;;16.24;70.64;100806.55;108103;1254;72941;-69
2023/09/23 04:38:18;;;;;;;13.50;10.20;;;;;;;16.34;70.71;100806.02;108055;1254;71628;-67
2023/09/23 04:40:46;;;;;;;17.90;11.20;;;;;;;16.43;70.68;100805.30;108044;1256;72831;-68
2023/09/23 04:43:16;;;;;;;13.20;10.40;;;;;;;16.54;70.61;100806.66;108027;1254;60942;-69
2023/09/23 04:45:44;;;;;;;13.20;10.20;;;;;;;16.66;70.59;100807.02;108090;1254;60447;-69
2023/09/23 04:48:12;;;;;;;14.50;10.40;;;;;;;16.78;70.35;100809.15;108011;1254;73856;-67
2023/09/23 04:50:41;;;;;;;13.70;10.80;;;;;;;16.91;70.11;100813.83;108016;1254;72513;-69
2023/09/23 04:53:09;;;;;;;15.70;10.80;;;;;;;17.04;69.92;100816.91;108111;1254;72501;-70
2023/09/23 04:55:37;;;;;;;16.10;11.20;;;;;;;17.16;69.66;100810.96;108135;1254;60482;-68
2023/09/23 04:58:05;;;;;;;14.40;10.40;;;;;;;17.27;69.35;100810.56;108130;1254;62126;-68
2023/09/23 05:00:36;;;;;;;14.60;10.00;;;;;;;17.39;69.23;100814.26;108018;1254;76163;-70
2023/09/23 05:03:08;;;;;;;15.50;10.10;;;;;;;17.50;68.97;100814.91;107904;1254;72083;-68
2023/09/23 05:05:36;;;;;;;11.40;9.80;;;;;;;17.62;68.69;100816.28;107967;1254;72822;-68
2023/09/23 05:08:09;;;;;;;16.00;10.20;;;;;;;17.70;68.39;100815.47;107993;1254;61776;-68
2023/09/23 05:10:39;;;;;;;12.60;9.70;;;;;;;17.78;68.10;100812.48;108000;1253;62410;-69
2023/09/23 05:13:09;;;;;;;13.20;10.00;;;;;;;17.84;67.71;100813.73;108111;1254;72609;-67
2023/09/23 05:15:37;;;;;;;13.40;9.30;;;;;;;17.88;67.50;100817.55;108054;1254;71625;-67
2023/09/23 05:18:05;;;;;;;13.30;9.30;;;;;;;17.93;67.08;100818.55;107998;1254;71504;-68
2023/09/23 05:20:33;;;;;;;10.80;9.10;;;;;;;18.00;66.96;100822.08;108078;1254;60306;-68
2023/09/23 05:23:06;;;;;;;10.80;9.10;;;;;;;18.12;66.61;100824.34;103506;1254;10001669;-68
2023/09/23 05:25:35;;;;;;;13.30;9.70;;;;;;;18.26;66.29;100827.98;107910;1254;59991;-68
2023/09/23 05:28:04;;;;;;;18.10;10.20;;;;;;;18.41;65.88;100825.09;108013;1259;72442;-68
2023/09/23 05:30:33;;;;;;;18.90;10.30;;;;;;;18.56;65.61;100828.67;108089;1254;72909;-68
2023/09/23 05:33:02;;;;;;;15.80;9.50;;;;;;;18.69;65.24;100826.86;107895;1253;61646;-68
2023/09/23 05:35:30;;;;;;;13.90;9.70;;;;;;;18.83;64.69;100828.59;107881;1256;60450;-67
2023/09/23 05:37:57;;;;;;;12.50;9.30;;;;;;;18.97;64.16;100829.51;108024;1254;73804;-69
2023/09/23 05:40:29;;;;;;;12.80;9.20;;;;;;;19.09;63.40;100830.91;108067;1254;71557;-69
2023/09/23 05:42:57;;;;;;;;;;;;;;;19.20;62.92;100834.11;108060;1256;71466;-68
2023/09/23 05:45:24;;;;;;;16.20;9.50;;;;;;;19.31;62.35;100835.84;107932;1254;60408;-68
2023/09/23 05:47:53;;;;;;;12.60;8.80;;;;;;;19.41;61.77;100832.66;107947;1254;60326;-68
2023/09/23 05:50:22;;;;;;;20.60;8.80;;;;;;;19.53;61.30;100835.53;108042;1254;72482;-68
2023/09/23 05:52:50;;;;;;;11.70;8.50;;;;;;;19.64;60.70;100837.52;107999;1254;71591;-69
2023/09/23 05:55:17;;;;;;;12.60;8.40;;;;;;;19.75;60.32;100838.70;108007;1257;71553;-68
2023/09/23 05:57:45;;;;;;;12.60;9.20;;;;;;;19.88;60.18;100836.08;108115;1254;61619;-67
2023/09/23 06:00:15;;;;;;;13.90;8.80;;;;;;;20.00;59.79;100838.05;108019;1254;60443;-68
2023/09/23 06:02:45;;;;;;;15.10;9.10;;;;;;;20.12;59.24;100835.91;107951;1254;73903;-68
2023/09/23 06:05:14;;;;;;;12.20;8.50;;;;;;;20.24;58.84;100834.93;108064;1254;71517;-70
2023/09/23 06:07:42;;;;;;;12.50;8.60;;;;;;;20.34;58.34;100835.91;108002;1254;72749;-68
2023/09/23 06:10:10;;;;;;;13.10;8.70;;;;;;;20.45;57.76;100838.65;107786;1258;60450;-69
2023/09/23 06:12:39;;;;;;;13.60;8.70;;;;;;;20.57;57.41;100843.65;108126;1259;60640;-67
2023/09/23 06:15:10;;;;;;;12.10;8.80;;;;;;;20.69;57.41;100849.16;107987;1254;73019;-68
2023/09/23 06:17:38;;;;;;;13.50;8.50;;;;;;;20.82;57.08;100851.85;108070;1254;72707;-68
2023/09/23 06:20:07;;;;;;;13.30;9.10;;;;;;;20.95;56.86;100856.84;108033;1254;71346;-68
2023/09/23 06:22:35;;;;;;;12.80;8.80;;;;;;;21.05;56.50;100851.72;108065;1259;62657;-68
2023/09/23 06:25:03;;;;;;;12.60;8.70;;;;;;;21.17;56.28;100856.09;108053;1254;59577;-68
2023/09/23 06:27:31;;;;;;;13.80;8.50;;;;;;;21.28;56.32;100853.76;108036;1254;73811;-68
2023/09/23 06:29:58;;;;;;;15.90;8.60;;;;;;;21.40;56.13;100846.89;107927;1254;73059;-69
2023/09/23 06:32:27;;;;;;;13.20;8.00;;;;;;;21.53;56.11;100848.77;107964;1254;72651;-68
2023/09/23 06:34:55;;;;;;;10.90;7.60;;;;;;;21.64;55.74;100850.76;108026;1254;60393;-68
2023/09/23 06:37:22;;;;;;;16.40;8.10;;;;;;;21.72;55.51;100852.91;108049;1254;60444;-68
2023/09/23 06:39:50;;;;;;;16.20;8.40;;;;;;;21.81;55.56;100851.02;108023;1254;72609;-67
2023/09/23 06:42:18;;;;;;;11.00;7.70;;;;;;;21.90;55.42;100854.19;107852;1259;72730;-68
2023/09/23 06:44:46;;;;;;;12.50;8.30;;;;;;;21.99;55.36;100851.76;107762;1257;72956;-67
2023/09/23 06:47:13;;;;;;;13.60;8.40;;;;;;;22.09;55.24;100855.72;107970;1254;60315;-69
2023/09/23 06:49:41;;;;;;;12.80;8.40;;;;;;;22.18;55.21;100855.06;107780;1254;61439;-68
2023/09/23 06:52:08;;;;;;;14.60;8.40;;;;;;;22.29;55.29;100857.98;107835;1254;72545;-68
2023/09/23 06:54:36;;;;;;;14.40;8.30;;;;;;;22.41;55.42;100863.71;107985;1254;72690;-68
2023/09/23 06:57:04;;;;;;;12.70;8.40;;;;;;;22.53;55.05;100868.70;107974;1254;71882;-68
2023/09/23 06:59:31;;;;;;;13.70;7.90;;;;;;;22.65;54.97;100862.95;107851;1254;60216;-68
2023/09/23 07:01:59;;;;;;;15.40;8.10;;;;;;;22.78;54.92;100862.48;107985;1259;60295;-68
2023/09/23 07:04:28;;;;;;;13.20;7.90;;;;;;;22.92;54.80;100861.38;107955;1259;72566;-69
2023/09/23 07:06:56;;;;;;;11.20;7.40;;;;;;;23.05;54.75;100860.08;107956;1254;73180;-69
2023/09/23 07:09:23;;;;;;;12.90;7.80;;;;;;;23.19;54.75;100861.38;107909;1254;73123;-69
2023/09/23 07:11:51;;;;;;;11.20;8.10;;;;;;;23.30;54.42;100862.23;108002;1254;60472;-69
2023/09/23 07:14:19;;;;;;;11.30;7.60;;;;;;;23.42;54.15;100860.38;108046;1254;60022;-69
2023/09/23 07:16:47;;;;;;;10.50;7.60;;;;;;;23.52;53.77;100860.49;107949;1254;76129;-68
2023/09/23 07:19:14;;;;;;;8.00;7.20;;;;;;;23.62;53.54;100864.59;108109;1259;71583;-69
2023/09/23 07:21:42;;;;;;;12.20;7.60;;;;;;;23.73;53.35;100872.14;107994;1254;72765;-69
2023/09/23 07:24:11;;;;;;;9.50;7.40;;;;;;;23.84;53.02;100873.07;108024;1254;60446;-70
2023/09/23 07:26:40;;;;;;;12.00;6.60;;;;;;;23.94;52.86;100871.30;107985;1254;60322;-69
2023/09/23 07:29:08;;;;;;;13.40;6.90;;;;;;;24.05;52.48;100873.52;108112;1254;73108;-69
2023/09/23 07:31:35;;;;;;;14.40;7.50;;;;;;;24.16;52.41;100869.04;107942;1254;71709;-69
2023/09/23 07:34:03;;;;;;;15.80;7.70;;;;;;;24.26;51.91;100869.11;107891;1254;71557;-69
2023/09/23 07:36:30;;;;;;;9.70;6.90;;;;;;;24.33;51.64;100867.33;107969;1253;60450;-67
2023/09/23 07:38:58;;;;;;;11.00;7.10;;;;;;;24.43;51.35;100866.48;108260;1254;60073;-68
2023/09/23 07:41:26;;;;;;;10.60;7.00;;;;;;;24.51;51.26;100870.86;107989;1254;75142;-68
2023/09/23 07:43:54;;;;;;;10.50;6.40;;;;;;;24.58;51.11;100878.71;108189;1254;72906;-71
2023/09/23 07:46:21;;;;;;;10.30;6.90;;;;;;;24.66;50.80;100880.29;108041;1254;72688;-68
2023/09/23 07:48:49;;;;;;;10.90;7.30;;;;;;;24.76;51.21;100879.52;107942;1254;60431;-68
2023/09/23 07:51:16;;;;;;;11.10;6.80;;;;;;;24.88;51.09;100875.95;108079;1254;59068;-70
2023/09/23 07:53:44;;;;;;;9.40;6.60;;;;;;;25.00;50.81;100870.82;108071;1253;73316;-68
2023/09/23 07:56:12;;;;;;;10.80;7.00;;;;;;;25.11;50.55;100871.77;108074;1254;71561;-71
2023/09/23 07:58:41;;;;;;;10.80;6.80;;;;;;;25.19;50.44;100865.52;108122;1254;72239;-68
2023/09/23 08:01:09;;;;;;;10.70;7.20;;;;;;;25.28;50.13;100869.98;108164;1254;60423;-69
2023/09/23 08:03:36;;;;;;;11.20;6.50;;;;;;;25.36;50.12;100867.69;108105;1254;60430;-68
2023/09/23 08:06:04;;;;;;;10.50;7.00;;;;;;;25.46;49.78;100865.15;108133;1254;72629;-69
2023/09/23 08:08:32;;;;;;;12.60;6.60;;;;;;;25.55;49.55;100866.63;108000;1254;72607;-67
2023/09/23 08:10:59;;;;;;;10.30;6.90;;;;;;;25.60;49.18;100863.64;107978;1254;72793;-69
2023/09/23 08:13:27;;;;;;;10.60;6.50;;;;;;;25.64;48.92;100858.91;108018;1254;60382;-68
2023/09/23 08:15:58;;;;;;;8.80;6.60;;;;;;;25.70;48.70;100860.15;107968;1253;60328;-69
2023/09/23 08:18:25;;;;;;;12.00;6.80;;;;;;;25.76;48.25;100863.03;108084;1254;73884;-69
2023/09/23 08:20:57;;;;;;;11.90;7.10;;;;;;;25.79;47.94;100862.98;108125;1259;72753;-70
2023/09/23 08:23:25;;;;;;;9.10;6.40;;;;;;;25.83;47.87;100866.75;108154;1254;71414;-70
2023/09/23 08:25:54;;;;;;;9.60;6.80;;;;;;;25.87;47.68;100862.95;108002;1253;60333;-68
2023/09/23 08:28:22;;;;;;;11.80;6.60;;;;;;;25.91;47.41;100860.78;108032;1254;60258;-70
2023/09/23 08:30:53;;;;;;;9.60;6.70;;;;;;;25.93;47.23;100859.66;107870;1256;72016;-67
2023/09/23 08:33:21;;;;;;;9.10;6.60;;;;;;;25.95;47.17;100854.63;108100;1254;72922;-67
2023/09/23 08:35:49;;;;;;;10.80;6.90;;;;;;;25.97;46.92;100856.16;107910;1254;72701;-68
2023/09/23 08:38:16;;;;;;;10.80;7.10;;;;;;;25.99;46.76;100862.05;107983;1259;60420;-69
2023/09/23 08:40:45;;;;;;;12.40;6.60;;;;;;;26.01;47.02;100860.48;107856;1253;60460;-69
2023/09/23 08:43:13;;;;;;;8.00;6.50;;;;;;;26.04;46.82;100863.13;107994;1254;72720;-68
2023/09/23 08:45:46;;;;;;;10.70;6.80;;;;;;;26.05;46.47;100857.44;108087;1254;71915;-68
2023/09/23 08:48:13;;;;;;;10.00;6.80;;;;;;;26.07;46.48;100863.99;108117;1254;71615;-68
2023/09/23 08:50:46;;;;;;;10.20;6.50;;;;;;;26.10;46.21;100862.24;107895;1256;60329;-69
2023/09/23 08:53:14;;;;;;;8.70;6.40;;;;;;;26.14;46.30;100858.14;108027;1254;60370;-68
2023/09/23 08:55:42;;;;;;;7.90;6.20;;;;;;;26.24;46.51;100855.08;107837;1254;73417;-68
2023/09/23 08:58:10;;;;;;;8.30;6.20;;;;;;;26.33;46.04;100848.08;107741;1254;71590;-69
2023/09/23 09:00:44;;;;;;;12.60;6.50;;;;;;;26.39;46.10;100849.95;107975;1254;72679;-69
2023/09/23 09:03:15;;;;;;;11.20;6.70;;;;;;;26.45;45.87;100842.16;107895;1256;61250;-68
2023/09/23 09:05:43;;;;;;;10.90;6.50;;;;;;;26.52;45.59;100836.23;108060;1254;61094;-66
2023/09/23 09:08:12;;;;;;;11.60;6.90;;;;;;;26.58;45.28;100831.14;107955;1254;73380;-68
2023/09/23 09:10:40;;;;;;;13.00;7.10;;;;;;;26.64;44.99;100831.50;108022;1254;71418;-68
2023/09/23 09:13:08;;;;;;;10.30;6.60;;;;;;;26.71;44.88;100833.74;108141;1257;71826;-67
2023/09/23 09:15:36;;;;;;;9.80;6.50;;;;;;;26.77;44.79;100834.89;108092;1254;61251;-68
2023/09/23 09:18:05;;;;;;;10.00;6.40;;;;;;;26.86;44.92;100831.79;107883;1255;61161;-68
2023/09/23 09:20:33;;;;;;;9.40;6.30;;;;;;;26.96;44.94;100827.37;108014;1259;74666;-68
2023/09/23 09:23:01;;;;;;;9.70;6.40;;;;;;;27.07;44.76;100828.19;107970;1254;71434;-68
2023/09/23 09:25:30;;;;;;;9.00;6.30;;;;;;;27.14;44.29;100833.12;108005;1254;71451;-69
2023/09/23 09:27:58;;;;;;;10.10;6.20;;;;;;;27.22;44.07;100836.18;108100;1258;59336;-68
2023/09/23 09:30:27;;;;;;;7.70;5.90;;;;;;;27.28;43.83;100834.59;107960;1254;61116;-68
2023/09/23 09:32:56;;;;;;;9.90;5.90;;;;;;;27.33;43.81;100836.00;107917;1254;65784;-70
2023/09/23 09:35:24;;;;;;;9.80;6.10;;;;;;;27.38;43.63;100841.52;108143;1254;63783;-67
2023/09/23 09:37:52;;;;;;;12.30;6.40;;;;;;;27.42;43.26;100843.53;107795;1259;72965;-69
2023/09/23 09:40:33;;;;;;;11.30;6.20;;;;;;;27.45;43.25;100843.59;107871;1254;61148;-69
2023/09/23 09:43:01;;;;;;;11.50;6.20;;;;;;;27.49;43.34;100846.25;108081;1254;61352;-68
2023/09/23 09:45:34;;;;;;;9.70;6.00;;;;;;;27.57;42.92;100846.63;108182;1254;73383;-68
2023/09/23 09:48:01;;;;;;;8.00;6.00;;;;;;;27.63;42.53;100849.39;108183;1254;62817;-69
2023/09/23 09:50:31;;;;;;;12.00;6.30;;;;;;;27.68;42.49;100841.47;107826;1254;62515;-69
2023/09/23 09:52:59;;;;;;;6.80;5.70;;;;;;;27.70;42.48;100845.67;107893;1257;60360;-68
2023/09/23 09:55:26;;;;;;;7.20;6.00;;;;;;;27.75;42.46;100842.94;107951;1253;61145;-67
2023/09/23 09:57:54;;;;;;;10.60;6.50;;;;;;;27.79;42.13;100838.40;107959;1254;74605;-68
2023/09/23 10:02:56;;;;;;;9.20;5.70;;;;;;;27.84;41.86;100835.34;108000;1257;62620;-69
2023/09/23 10:05:33;;;;;;;13.30;5.90;;;;;;;27.88;41.95;100834.13;108112;1254;61189;-68
2023/09/23 10:08:13;;;;;;;8.60;5.90;;;;;;;27.93;41.88;100831.16;108000;1253;61299;-69
2023/09/23 10:10:48;;;;;;;9.30;6.10;;;;;;;27.96;41.67;100826.27;108084;1253;64536;-69
2023/09/23 10:13:17;;;;;;;9.10;5.80;;;;;;;28.02;41.83;100829.49;108061;1254;72117;-68
2023/09/23 10:15:45;;;;;;;9.10;6.30;;;;;;;28.06;41.55;100832.79;107953;1256;62452;-67
2023/09/23 10:18:14;;;;;;;9.00;5.80;;;;;;;28.13;41.57;100837.36;108047;1256;61090;-68
2023/09/23 10:20:54;;;;;;;11.60;6.20;;;;;;;28.19;41.61;100834.77;108161;1254;59344;-67
2023/09/23 10:23:22;;;;;;;8.10;5.90;;;;;;;28.22;41.11;100833.02;107957;1254;65722;-68
2023/09/23 10:25:51;;;;;;;11.20;6.20;;;;;;;28.24;40.97;100834.38;107934;1254;62575;-68
2023/09/23 10:28:23;;;;;;;12.70;6.50;;;;;;;28.27;40.94;100833.88;107967;1254;62535;-68
2023/09/23 10:30:58;;;;;;;8.10;5.50;;;;;;;28.32;40.93;100840.53;108017;1257;61204;-68
2023/09/23 10:33:27;;;;;;;9.30;5.80;;;;;;;28.37;40.93;100841.63;107999;1254;61606;-68
2023/09/23 10:35:56;;;;;;;7.40;5.10;;;;;;;28.41;40.57;100836.75;107862;1260;77229;-68
2023/09/23 10:38:26;;;;;;;7.70;4.80;;;;;;;28.43;40.06;100831.30;108077;1254;71032;-68
2023/09/23 10:40:54;;;;;;;7.30;5.30;;;;;;;28.46;39.63;100828.82;107991;1257;62603;-68
2023/09/23 10:43:22;;;;;;;7.50;5.30;;;;;;;28.49;39.99;100829.19;108070;1254;61146;-68
2023/09/23 10:45:57;;;;;;;7.90;5.50;;;;;;;28.52;40.06;100826.09;107883;1254;61141;-68
2023/09/23 10:48:26;;;;;;;8.40;5.60;;;;;;;28.58;40.30;100821.76;107901;1254;64497;-68
2023/09/23 10:50:53;;;;;;;8.50;5.40;;;;;;;28.63;40.19;100814.44;107809;1254;75025;-67
2023/09/23 10:53:21;;;;;;;7.60;5.30;;;;;;;28.67;39.63;100815.29;107866;1254;63822;-68
2023/09/23 10:55:52;;;;;;;7.90;5.00;;;;;;;28.89;39.52;100812.80;107888;1259;60993;-67
2023/09/23 10:58:19;;;;;;;10.20;5.70;;;;;;;29.25;38.43;100809.26;107989;1254;61218;-68
2023/09/23 11:00:48;;;;;;;7.60;5.20;;;;;;;29.36;38.26;100806.23;108125;1253;64520;-68
2023/09/23 11:03:17;;;;;;;9.90;5.20;;;;;;;29.44;37.94;100807.01;107976;1254;62863;-68
2023/09/23 11:05:46;;;;;;;7.60;5.10;;;;;;;29.52;37.54;100803.70;108030;1254;63839;-69
2023/09/23 11:08:15;;;;;;;9.80;5.00;;;;;;;29.57;37.05;100800.91;108036;1253;61249;-69
2023/09/23 11:10:44;;;;;;;7.20;5.00;;;;;;;29.61;37.00;100799.55;108060;1254;61176;-68
2023/09/23 11:13:12;;;;;;;6.80;4.90;;;;;;;29.64;36.61;100798.95;108027;1254;66204;-69
2023/09/23 11:15:43;;;;;;;8.50;5.00;;;;;;;29.66;36.10;100791.81;107934;1254;62724;-67
2023/09/23 11:18:13;;;;;;;10.60;5.10;;;;;;;29.65;36.17;100788.80;108010;1254;63753;-68
2023/09/23 11:20:43;;;;;;;8.30;5.00;;;;;;;29.68;36.44;100786.16;108059;1254;59953;-68